METAR Data
IDs: Format: Raw Decoded Include TAF

Data at: 1006 UTC 21 Apr 2021

METAR for:LFAQ (Albert/Picardie Arpt, HD, FR)
Text:LFAQ 211000Z AUTO 04013KT 8000 NSC 14/09 Q1018 NOSIG
Temperature: 14.0°C ( 57°F)
Dewpoint: 9.0°C ( 48°F) [RH = 72%]
Pressure (altimeter):30.06 inches Hg (1018.0 mb)
Winds:from the NE (40 degrees) at 15 MPH (13 knots; 6.7 m/s)
Visibility: 5 sm ( 8 km)
Ceiling:at least 12,000 feet AGL
Clouds:sky clear below 12,000 feet AGL

TAF for:LFAQ (Albert/Picardie Arpt, HD, FR) issued at 0800 UTC 21 Apr 2021
Text:TAF LFAQ 210800Z 2109/2118 01010KT 4000 BR NSC
Forecast period:0900 to 1800 UTC 21 April 2021
Forecast type:FROM: standard forecast or significant change
Winds:from the N (10 degrees) at 12 MPH (10 knots; 5.1 m/s)
Visibility: 2.49 sm ( 4.01 km)
Clouds:missing
Weather:BR (mist)
Text:BECMG 2109/2110 CAVOK
Forecast period:0900 to 1800 UTC 21 April 2021
Forecast type:BECOMING: Conditions expected to become as follows by 1000 UTC 21 April 2021
Winds:from the N (10 degrees) at 12 MPH (10 knots; 5.1 m/s)
Visibility:6 or more sm (10+ km)
Clouds:missing
Weather:NSW (no significant weather)